Allen, TX

8:34 PM CST on February 12, 2016 (GMT -0600)
Arbor Lakes | | Change Station
CLOSE
Current Station
Personal Weather Station
Location: Allen, TX
Elevation: 656 ft
Nearby Weather Stations

Elev 656 ft 33.09 °N, 96.62 °W | Updated 4 seconds ago

Clear
Clear
55.9 °F
Feels Like 55.9 °F
N
2.2
Wind Variable Wind from ESE

Today
High -- | Low -- °F
--% Chance of Precip.
Yesterday
High -- | Low -- °F
Precip. -- in
Pressure 30.35 in
Visibility 10.0 miles
Clouds Clear
Dew Point 38 °F
Humidity 51%
Rainfall 0.00 in
Snow Depth Not available.
7:13 AM 6:08 PM
Waxing Crescent, 26% visible
METAR KTKI 130153Z 03006KT 10SM CLR 13/02 A3032 RMK AO2 SLP277 T01280022
Pressure 30.35 in
Visibility 10.0 miles
Clouds Clear
Dew Point 38 °F
Humidity 51%
Rainfall 0.00 in
Snow Depth Not available.
7:13 AM 6:08 PM
Waxing Crescent, 26% visible
METAR KTKI 130153Z 03006KT 10SM CLR 13/02 A3032 RMK AO2 SLP277 T01280022

10-Day Weather Forecast

Almanac

Astronomy

Feb. 12, 2016 Rise Set
Actual Time
Civil Twilight
Nautical Twilight
Astronomical Twilight
Moon
Length of Visible Light
Length of Day
Tomorrow will be .
, % of the Moon is Illuminated

Today's Extremes

State Highs State Lows

Community

WunderPhotos

Upload Photos

1,892,464 photos uploaded!

WunderBlog® & News

Nearby

Air Quality

  Air Quality AQ Index Pollutant
Not available.

Snow Depth

Station Depth Elevation

Earthquake Activity

City Distance Mag. Time & Date
Minimum magnitude displayed is 2.5.

Coastal Water Temperatures

Place Temperature

Stations

Nearby Weather Stations

Station Location Temp. Windchill Dew Point Humidity Wind Precip. Elev Updated Type
                   

Watches & Warnings

There are currently no watches in effect.